Time;durP1;ratioP1;P1;durP2;ratioP2;P2;SDS_P1;SDS_P2;PMS_P1;PMS_P2;Temp;Humidity;BMP_temperature;BMP_pressure;BME280_temperature;BME280_humidity;BME280_pressure;Samples;Min_cycle;Max_cycle;Signal;HPM_P1;HPM_P2
2020/12/18 00:01:07;;;;;;;1.08;0.90;;;;;;;;;;5088662;28;20051;-71
2020/12/18 00:03:33;;;;;;;2.08;1.48;;;;;;;;;;5088081;28;20044;-71
2020/12/18 00:05:59;;;;;;;1.73;1.60;;;;;;;;;;5086912;28;20115;-72
2020/12/18 00:08:25;;;;;;;1.13;1.02;;;;;;;;;;5088551;28;20040;-71
2020/12/18 00:10:52;;;;;;;3.08;1.63;;;;;;;;;;5089132;28;20501;-71
2020/12/18 00:13:18;;;;;;;2.47;1.92;;;;;;;;;;5086785;28;20049;-71
2020/12/18 00:15:44;;;;;;;1.40;1.25;;;;;;;;;;5088015;28;20063;-72
2020/12/18 00:18:10;;;;;;;1.00;1.00;;;;;;;;;;5088234;28;20031;-71
2020/12/18 00:20:36;;;;;;;1.98;1.30;;;;;;;;;;5088849;28;20107;-71
2020/12/18 00:23:02;;;;;;;2.90;2.08;;;;;;;;;;5088405;28;20062;-71
2020/12/18 00:25:28;;;;;;;1.30;1.20;;;;;;;;;;5084989;28;20047;-72
2020/12/18 00:27:54;;;;;;;1.55;1.30;;;;;;;;;;5087434;28;20101;-71
2020/12/18 00:30:20;;;;;;;1.63;1.52;;;;;;;;;;5087990;28;20060;-71
2020/12/18 00:32:46;;;;;;;0.80;0.80;;;;;;;;;;5088225;28;20032;-71
2020/12/18 00:35:12;;;;;;;0.98;0.95;;;;;;;;;;5085717;28;20099;-71
2020/12/18 00:37:39;;;;;;;1.20;1.10;;;;;;;;;;5088498;28;20020;-71
2020/12/18 00:40:07;;;;;;;1.45;1.27;;;;;;;;;;5088515;28;20031;-71
2020/12/18 00:42:33;;;;;;;0.95;0.95;;;;;;;;;;5087299;28;20036;-71
2020/12/18 00:45:00;;;;;;;2.70;1.55;;;;;;;;;;5087506;28;20111;-71
2020/12/18 00:47:26;;;;;;;1.63;1.02;;;;;;;;;;5087658;28;20773;-71
2020/12/18 00:49:52;;;;;;;1.20;1.10;;;;;;;;;;5088443;28;20031;-71
2020/12/18 00:52:18;;;;;;;3.15;1.67;;;;;;;;;;5087429;28;20031;-71
2020/12/18 00:54:44;;;;;;;1.25;0.80;;;;;;;;;;5087625;28;20051;-71
2020/12/18 00:57:10;;;;;;;0.93;0.68;;;;;;;;;;5086296;28;20024;-71
2020/12/18 00:59:36;;;;;;;1.15;1.05;;;;;;;;;;5088570;28;20024;-71
2020/12/18 01:02:05;;;;;;;1.08;1.02;;;;;;;;;;5087438;28;20671;-71
2020/12/18 01:04:31;;;;;;;1.55;1.40;;;;;;;;;;5085495;28;20036;-71
2020/12/18 01:06:57;;;;;;;1.83;1.08;;;;;;;;;;5087362;28;20561;-71
2020/12/18 01:09:24;;;;;;;2.50;1.50;;;;;;;;;;5086886;28;20410;-71
2020/12/18 01:11:50;;;;;;;0.70;0.70;;;;;;;;;;5087892;28;20051;-71
2020/12/18 01:14:17;;;;;;;1.35;0.63;;;;;;;;;;5086045;28;20455;-71
2020/12/18 01:16:43;;;;;;;1.27;0.95;;;;;;;;;;5087812;28;20153;-71
2020/12/18 01:19:09;;;;;;;1.00;0.70;;;;;;;;;;5086938;28;20035;-71
2020/12/18 01:21:36;;;;;;;2.13;0.85;;;;;;;;;;5087773;28;20103;-71
2020/12/18 01:24:03;;;;;;;1.10;1.00;;;;;;;;;;5086993;28;20044;-71
2020/12/18 01:26:29;;;;;;;0.70;0.70;;;;;;;;;;5086081;28;20155;-71
2020/12/18 01:28:55;;;;;;;1.05;0.95;;;;;;;;;;5087084;28;20024;-71
2020/12/18 01:31:21;;;;;;;0.93;0.73;;;;;;;;;;5087000;28;20024;-71
2020/12/18 01:33:47;;;;;;;1.20;1.10;;;;;;;;;;5086856;28;20543;-71
2020/12/18 01:36:13;;;;;;;0.80;0.75;;;;;;;;;;5084143;28;20362;-71
2020/12/18 01:38:39;;;;;;;0.55;0.55;;;;;;;;;;5087463;28;20035;-71
2020/12/18 01:41:05;;;;;;;1.08;0.98;;;;;;;;;;5088034;28;20036;-71
2020/12/18 01:43:31;;;;;;;1.05;0.95;;;;;;;;;;5085583;28;20036;-71
2020/12/18 01:45:59;;;;;;;0.82;0.75;;;;;;;;;;5087053;28;20631;-71
2020/12/18 01:48:26;;;;;;;1.17;0.70;;;;;;;;;;5086873;28;20031;-71
2020/12/18 01:50:52;;;;;;;1.10;1.00;;;;;;;;;;5087682;28;20096;-71
2020/12/18 01:53:18;;;;;;;1.38;1.13;;;;;;;;;;5086615;28;20013;-71
2020/12/18 01:55:44;;;;;;;1.50;1.02;;;;;;;;;;5086954;28;20031;-71
2020/12/18 01:58:11;;;;;;;1.33;0.90;;;;;;;;;;5086060;28;20028;-71
2020/12/18 02:00:37;;;;;;;1.35;0.70;;;;;;;;;;5087550;28;20343;-71
2020/12/18 02:03:03;;;;;;;1.75;1.23;;;;;;;;;;5087446;28;20119;-71
2020/12/18 02:05:29;;;;;;;1.15;0.70;;;;;;;;;;5084480;28;20039;-71
2020/12/18 02:08:01;;;;;;;0.45;0.45;;;;;;;;;;5086797;28;20438;-71
2020/12/18 02:10:27;;;;;;;1.05;0.95;;;;;;;;;;5086599;28;20438;-71
2020/12/18 02:12:54;;;;;;;0.65;0.52;;;;;;;;;;5086238;28;20028;-71
2020/12/18 02:15:21;;;;;;;1.02;0.80;;;;;;;;;;5085935;28;20410;-70
2020/12/18 02:17:48;;;;;;;0.70;0.60;;;;;;;;;;5087361;28;20417;-70
2020/12/18 02:20:14;;;;;;;0.85;0.85;;;;;;;;;;5086352;28;20036;-70
2020/12/18 02:22:40;;;;;;;1.60;0.70;;;;;;;;;;5087245;28;20174;-70
2020/12/18 02:25:10;;;;;;;1.77;1.27;;;;;;;;;;5086139;28;20032;-70
2020/12/18 02:27:37;;;;;;;0.88;0.82;;;;;;;;;;5086494;28;20651;-70
2020/12/18 02:30:07;;;;;;;0.75;0.68;;;;;;;;;;5087268;28;20028;-70
2020/12/18 02:32:33;;;;;;;0.77;0.77;;;;;;;;;;5086522;28;20054;-70
2020/12/18 02:34:59;;;;;;;0.60;0.60;;;;;;;;;;5084972;28;20039;-70
2020/12/18 02:37:25;;;;;;;0.60;0.60;;;;;;;;;;5089728;28;20043;-70
2020/12/18 02:39:56;;;;;;;1.00;0.80;;;;;;;;;;5090980;28;20020;-70
2020/12/18 02:42:22;;;;;;;0.60;0.60;;;;;;;;;;5089608;28;20024;-70
2020/12/18 02:44:48;;;;;;;1.02;0.57;;;;;;;;;;5089797;28;20054;-70
2020/12/18 02:47:14;;;;;;;0.50;0.50;;;;;;;;;;5090139;28;20078;-70
2020/12/18 02:49:41;;;;;;;0.65;0.60;;;;;;;;;;5090529;28;20034;-70
2020/12/18 02:52:07;;;;;;;1.38;1.08;;;;;;;;;;5089746;28;20032;-70
2020/12/18 02:54:33;;;;;;;0.90;0.65;;;;;;;;;;5089524;28;20039;-70
2020/12/18 02:56:59;;;;;;;0.68;0.65;;;;;;;;;;5089486;28;20020;-70
2020/12/18 02:59:25;;;;;;;0.60;0.50;;;;;;;;;;5089784;28;20050;-70
2020/12/18 03:01:51;;;;;;;0.63;0.63;;;;;;;;;;5090005;28;20020;-70
2020/12/18 03:04:17;;;;;;;0.82;0.43;;;;;;;;;;5088114;28;20516;-70
2020/12/18 03:06:43;;;;;;;0.80;0.68;;;;;;;;;;5089862;28;20047;-70
2020/12/18 03:09:09;;;;;;;0.95;0.50;;;;;;;;;;5089042;28;20050;-70
2020/12/18 03:11:35;;;;;;;0.80;0.68;;;;;;;;;;5089608;28;20036;-70
2020/12/18 03:14:02;;;;;;;0.68;0.68;;;;;;;;;;5089611;28;20536;-70
2020/12/18 03:16:28;;;;;;;1.20;1.10;;;;;;;;;;5089181;28;20110;-70
2020/12/18 03:18:54;;;;;;;1.08;0.98;;;;;;;;;;5090280;28;20069;-70
2020/12/18 03:21:20;;;;;;;0.40;0.40;;;;;;;;;;5089222;28;20024;-70
2020/12/18 03:23:46;;;;;;;0.50;0.50;;;;;;;;;;5089290;28;20028;-70
2020/12/18 03:26:13;;;;;;;0.57;0.55;;;;;;;;;;5070077;28;20032;-70
2020/12/18 03:28:39;;;;;;;0.80;0.47;;;;;;;;;;5090026;28;20062;-70
2020/12/18 03:31:06;;;;;;;0.77;0.63;;;;;;;;;;5089762;28;20058;-70
2020/12/18 03:33:33;;;;;;;0.52;0.52;;;;;;;;;;5088127;28;20039;-70
2020/12/18 03:35:59;;;;;;;1.00;0.43;;;;;;;;;;5087533;28;20036;-70
2020/12/18 03:38:25;;;;;;;0.52;0.40;;;;;;;;;;5088130;28;20032;-70
2020/12/18 03:40:51;;;;;;;0.60;0.60;;;;;;;;;;5088967;28;20028;-70
2020/12/18 03:43:17;;;;;;;0.50;0.50;;;;;;;;;;5087711;28;20028;-70
2020/12/18 03:45:43;;;;;;;0.40;0.40;;;;;;;;;;5088771;28;20016;-70
2020/12/18 03:48:09;;;;;;;0.32;0.32;;;;;;;;;;5088606;28;20123;-70
2020/12/18 03:50:35;;;;;;;0.43;0.40;;;;;;;;;;5089752;28;20439;-70
2020/12/18 03:53:01;;;;;;;1.00;0.60;;;;;;;;;;5089179;28;20032;-70
2020/12/18 03:55:27;;;;;;;0.80;0.73;;;;;;;;;;5088101;28;20035;-70
2020/12/18 03:57:53;;;;;;;0.77;0.60;;;;;;;;;;5088603;28;20161;-70
2020/12/18 04:00:19;;;;;;;0.47;0.47;;;;;;;;;;5089065;28;20032;-70
2020/12/18 04:02:45;;;;;;;0.47;0.47;;;;;;;;;;5089136;28;20040;-70
2020/12/18 04:05:11;;;;;;;0.32;0.32;;;;;;;;;;5086438;28;20028;-70
2020/12/18 04:07:37;;;;;;;0.52;0.52;;;;;;;;;;5088662;28;20032;-70
2020/12/18 04:10:04;;;;;;;0.50;0.50;;;;;;;;;;5088901;28;20016;-70
2020/12/18 04:12:30;;;;;;;0.40;0.40;;;;;;;;;;5087851;28;20056;-70
2020/12/18 04:14:56;;;;;;;0.60;0.30;;;;;;;;;;5088294;28;20036;-70
2020/12/18 04:17:22;;;;;;;1.15;0.50;;;;;;;;;;5087744;28;20023;-70
2020/12/18 04:19:48;;;;;;;0.43;0.40;;;;;;;;;;5089367;28;20034;-70
2020/12/18 04:22:14;;;;;;;0.20;0.20;;;;;;;;;;5087870;28;20777;-70
2020/12/18 04:24:41;;;;;;;0.68;0.65;;;;;;;;;;5088027;28;20059;-70
2020/12/18 04:27:07;;;;;;;0.70;0.43;;;;;;;;;;5087731;28;20051;-70
2020/12/18 04:29:33;;;;;;;0.20;0.20;;;;;;;;;;5088872;28;20026;-70
2020/12/18 04:31:59;;;;;;;0.50;0.28;;;;;;;;;;5088678;28;20036;-70
2020/12/18 04:34:25;;;;;;;0.75;0.30;;;;;;;;;;5086416;28;20020;-70
2020/12/18 04:36:51;;;;;;;0.28;0.22;;;;;;;;;;5088231;28;20027;-70
2020/12/18 04:39:17;;;;;;;0.70;0.28;;;;;;;;;;5087860;28;20028;-70
2020/12/18 04:41:43;;;;;;;0.30;0.30;;;;;;;;;;5088382;28;20052;-70
2020/12/18 04:44:10;;;;;;;0.75;0.25;;;;;;;;;;5086370;28;20043;-70
2020/12/18 04:46:36;;;;;;;0.30;0.30;;;;;;;;;;5088368;28;20024;-70
2020/12/18 04:49:05;;;;;;;0.30;0.30;;;;;;;;;;5088278;28;20051;-70
2020/12/18 04:51:31;;;;;;;0.30;0.30;;;;;;;;;;5088147;28;20114;-70
2020/12/18 04:53:57;;;;;;;0.40;0.32;;;;;;;;;;5087987;28;20024;-70
2020/12/18 04:56:25;;;;;;;0.63;0.52;;;;;;;;;;5086141;28;20012;-70
2020/12/18 04:58:55;;;;;;;0.40;0.40;;;;;;;;;;5087854;28;20449;-70
2020/12/18 05:01:23;;;;;;;1.52;0.30;;;;;;;;;;5087557;28;20024;-70
2020/12/18 05:03:49;;;;;;;0.22;0.22;;;;;;;;;;5087292;28;20065;-70
2020/12/18 05:06:15;;;;;;;0.43;0.28;;;;;;;;;;5085668;28;20126;-70
2020/12/18 05:08:43;;;;;;;0.50;0.45;;;;;;;;;;5088251;28;20028;-70
2020/12/18 05:11:35;;;;;;;0.40;0.40;;;;;;;;;;5087448;28;20111;-70
2020/12/18 05:14:01;;;;;;;0.10;0.10;;;;;;;;;;5084640;28;20544;-70
2020/12/18 05:16:27;;;;;;;0.40;0.30;;;;;;;;;;5086606;28;20028;-70
2020/12/18 05:18:55;;;;;;;0.40;0.40;;;;;;;;;;5088439;28;20024;-70
2020/12/18 05:21:22;;;;;;;0.32;0.30;;;;;;;;;;5087215;28;20111;-70
2020/12/18 05:23:48;;;;;;;0.30;0.30;;;;;;;;;;5087304;28;20070;-70
2020/12/18 05:26:15;;;;;;;0.35;0.28;;;;;;;;;;5085688;28;20516;-70
2020/12/18 05:28:42;;;;;;;0.22;0.22;;;;;;;;;;5087797;28;20787;-70
2020/12/18 05:31:18;;;;;;;1.20;0.28;;;;;;;;;;5087549;28;20059;-70
2020/12/18 05:33:47;;;;;;;0.32;0.30;;;;;;;;;;5087052;28;20024;-70
2020/12/18 05:36:13;;;;;;;0.40;0.40;;;;;;;;;;5085364;28;20032;-70
2020/12/18 05:38:40;;;;;;;0.20;0.20;;;;;;;;;;5087582;28;20111;-70
2020/12/18 05:41:07;;;;;;;0.30;0.25;;;;;;;;;;5086692;28;20046;-70
2020/12/18 05:43:37;;;;;;;0.13;0.10;;;;;;;;;;5086037;28;20070;-70
2020/12/18 05:46:21;;;;;;;0.30;0.20;;;;;;;;;;5086695;28;20016;-70
2020/12/18 05:48:58;;;;;;;0.20;0.20;;;;;;;;;;5087092;28;20608;-70
2020/12/18 05:51:27;;;;;;;0.30;0.30;;;;;;;;;;5086918;28;20479;-70
2020/12/18 05:54:12;;;;;;;0.98;0.30;;;;;;;;;;5086839;28;20070;-70
2020/12/18 05:56:39;;;;;;;0.20;0.20;;;;;;;;;;5086550;28;20456;-70
2020/12/18 05:59:06;;;;;;;0.38;0.38;;;;;;;;;;5087918;28;20054;-70
2020/12/18 06:01:32;;;;;;;0.40;0.20;;;;;;;;;;5087740;28;20032;-70
2020/12/18 06:04:03;;;;;;;0.30;0.30;;;;;;;;;;5086399;28;20040;-70
2020/12/18 06:06:31;;;;;;;0.73;0.63;;;;;;;;;;5085346;28;20093;-70
2020/12/18 06:08:57;;;;;;;0.60;0.45;;;;;;;;;;5087020;28;20040;-70
2020/12/18 06:11:24;;;;;;;0.28;0.25;;;;;;;;;;5088323;28;20028;-70
2020/12/18 06:13:50;;;;;;;0.28;0.28;;;;;;;;;;5090651;28;20650;-70
2020/12/18 06:16:17;;;;;;;0.40;0.40;;;;;;;;;;5090120;28;20053;-70
2020/12/18 06:18:44;;;;;;;0.45;0.45;;;;;;;;;;5090878;28;20025;-70
2020/12/18 06:21:13;;;;;;;0.30;0.30;;;;;;;;;;5090294;28;20494;-70
2020/12/18 06:23:41;;;;;;;0.30;0.30;;;;;;;;;;5090305;28;20042;-70
2020/12/18 06:26:07;;;;;;;0.40;0.40;;;;;;;;;;5089364;28;20378;-70
2020/12/18 06:28:33;;;;;;;0.73;0.60;;;;;;;;;;5091234;28;20020;-70
2020/12/18 06:31:13;;;;;;;0.30;0.30;;;;;;;;;;5091203;28;20047;-70
2020/12/18 06:33:59;;;;;;;0.30;0.30;;;;;;;;;;5090379;28;20024;-70
2020/12/18 06:36:43;;;;;;;0.17;0.17;;;;;;;;;;5088798;28;20035;-70
2020/12/18 06:39:22;;;;;;;0.10;0.10;;;;;;;;;;5090017;28;20115;-70
2020/12/18 06:41:49;;;;;;;0.10;0.10;;;;;;;;;;5090475;28;20115;-70
2020/12/18 06:44:53;;;;;;;0.50;0.35;;;;;;;;;;5088336;28;20541;-70
2020/12/18 06:47:19;;;;;;;;;;;;;;;;;;5005893;28;20564;-69
2020/12/18 06:49:58;;;;;;;4.47;0.57;;;;;;;;;;5006775;28;20008;-69
2020/12/18 06:52:53;;;;;;;0.32;0.20;;;;;;;;;;5033155;28;20067;-70
2020/12/18 06:55:25;;;;;;;0.63;0.52;;;;;;;;;;5066188;28;20040;-69
2020/12/18 06:58:10;;;;;;;0.20;0.20;;;;;;;;;;5090328;28;20031;-70
2020/12/18 07:00:37;;;;;;;0.93;0.30;;;;;;;;;;5088429;28;20024;-70
2020/12/18 07:03:03;;;;;;;1.80;0.50;;;;;;;;;;5084200;28;20367;-70
2020/12/18 07:05:39;;;;;;;1.58;0.17;;;;;;;;;;5070783;28;20028;-70
2020/12/18 07:08:09;;;;;;;0.52;0.52;;;;;;;;;;5081212;28;20024;-70
2020/12/18 07:10:40;;;;;;;0.10;0.10;;;;;;;;;;5086182;28;20093;-69
2020/12/18 07:13:07;;;;;;;1.85;0.52;;;;;;;;;;5082655;28;20043;-69
2020/12/18 07:15:45;;;;;;;1.75;0.28;;;;;;;;;;5070541;28;20024;-70
2020/12/18 07:18:27;;;;;;;0.20;0.20;;;;;;;;;;5085226;28;20545;-69
2020/12/18 07:20:53;;;;;;;0.85;0.30;;;;;;;;;;5083462;28;20039;-70
2020/12/18 07:23:20;;;;;;;0.20;0.20;;;;;;;;;;5084220;28;20032;-69
2020/12/18 07:25:46;;;;;;;0.40;0.28;;;;;;;;;;5086205;28;20414;-69
2020/12/18 07:28:13;;;;;;;1.20;0.40;;;;;;;;;;5082462;28;20051;-71
2020/12/18 07:30:46;;;;;;;0.32;0.30;;;;;;;;;;5086195;28;20574;-71
2020/12/18 07:33:13;;;;;;;0.30;0.30;;;;;;;;;;5081036;28;20032;-71
2020/12/18 07:35:41;;;;;;;0.30;0.20;;;;;;;;;;5084418;28;20089;-71
2020/12/18 07:38:14;;;;;;;2.25;0.50;;;;;;;;;;5082412;28;20039;-72
2020/12/18 07:40:40;;;;;;;0.47;0.47;;;;;;;;;;5085288;28;20055;-72
2020/12/18 07:43:13;;;;;;;0.77;0.57;;;;;;;;;;5078873;28;20128;-72
2020/12/18 07:45:41;;;;;;;0.65;0.30;;;;;;;;;;5074401;28;20561;-73
2020/12/18 07:48:15;;;;;;;0.25;0.25;;;;;;;;;;5073860;28;20305;-70
2020/12/18 07:50:42;;;;;;;14.82;1.25;;;;;;;;;;5086002;28;20063;-69
2020/12/18 07:53:10;;;;;;;0.57;0.45;;;;;;;;;;5076755;28;20040;-72
2020/12/18 07:55:36;;;;;;;0.50;0.40;;;;;;;;;;5076237;28;20097;-70
2020/12/18 07:58:02;;;;;;;2.80;0.73;;;;;;;;;;5079649;28;20380;-70
2020/12/18 08:00:29;;;;;;;0.40;0.40;;;;;;;;;;5082448;28;20016;-70
2020/12/18 08:02:55;;;;;;;3.58;1.15;;;;;;;;;;5079923;28;20525;-72
2020/12/18 08:05:22;;;;;;;0.70;0.70;;;;;;;;;;5075398;28;20099;-69
2020/12/18 08:07:49;;;;;;;2.70;0.70;;;;;;;;;;5076210;28;20028;-70
2020/12/18 08:10:16;;;;;;;0.68;0.68;;;;;;;;;;5075063;28;20111;-71
2020/12/18 08:12:42;;;;;;;0.82;0.68;;;;;;;;;;5077734;28;20571;-70
2020/12/18 08:15:12;;;;;;;2.83;0.47;;;;;;;;;;5078576;28;20497;-71
2020/12/18 08:17:39;;;;;;;0.77;0.50;;;;;;;;;;5076500;28;20127;-71
2020/12/18 08:20:07;;;;;;;2.63;1.23;;;;;;;;;;5081474;28;20023;-71
2020/12/18 08:22:43;;;;;;;0.65;0.50;;;;;;;;;;5083152;28;20050;-71
2020/12/18 08:25:10;;;;;;;1.05;0.60;;;;;;;;;;5084623;28;20085;-71
2020/12/18 08:27:42;;;;;;;2.03;0.70;;;;;;;;;;5086871;28;20036;-71
2020/12/18 08:30:10;;;;;;;3.35;1.00;;;;;;;;;;5086642;28;20036;-71
2020/12/18 08:32:37;;;;;;;2.90;1.45;;;;;;;;;;5086170;28;20028;-70
2020/12/18 08:35:06;;;;;;;0.85;0.80;;;;;;;;;;5074798;28;20180;-71
2020/12/18 08:37:33;;;;;;;0.52;0.52;;;;;;;;;;5076137;28;20111;-73
2020/12/18 08:39:59;;;;;;;1.00;0.55;;;;;;;;;;5074653;28;20028;-73
2020/12/18 08:42:26;;;;;;;4.32;1.10;;;;;;;;;;5078011;28;20495;-71
2020/12/18 08:44:52;;;;;;;7.22;1.80;;;;;;;;;;5083176;28;20571;-71
2020/12/18 08:47:18;;;;;;;1.85;0.80;;;;;;;;;;5083539;28;20040;-70
2020/12/18 08:49:44;;;;;;;2.58;1.60;;;;;;;;;;5078859;28;20719;-71
2020/12/18 08:52:11;;;;;;;1.27;1.17;;;;;;;;;;5076144;28;20435;-72
2020/12/18 08:54:40;;;;;;;2.25;1.38;;;;;;;;;;5084756;28;20838;-72
2020/12/18 08:57:10;;;;;;;1.70;1.35;;;;;;;;;;5080257;28;21363;-71
2020/12/18 08:59:36;;;;;;;2.53;1.83;;;;;;;;;;5076065;28;20032;-71
2020/12/18 09:02:02;;;;;;;4.47;1.55;;;;;;;;;;5076585;28;20032;-72
2020/12/18 09:04:28;;;;;;;2.33;1.85;;;;;;;;;;5076635;28;20028;-71
2020/12/18 09:06:54;;;;;;;3.05;1.85;;;;;;;;;;5076804;28;20050;-71
2020/12/18 09:09:21;;;;;;;3.08;1.80;;;;;;;;;;5066734;28;20434;-71
2020/12/18 09:11:48;;;;;;;2.85;2.35;;;;;;;;;;5061134;28;20037;-71
2020/12/18 09:14:27;;;;;;;3.15;2.40;;;;;;;;;;5066802;28;20549;-70
2020/12/18 09:16:57;;;;;;;2.80;2.50;;;;;;;;;;5068863;28;20043;-72
2020/12/18 09:19:24;;;;;;;11.57;3.75;;;;;;;;;;5064223;28;20024;-71
2020/12/18 09:21:50;;;;;;;4.35;3.33;;;;;;;;;;5062363;28;20033;-72
2020/12/18 09:24:19;;;;;;;5.18;2.30;;;;;;;;;;5064208;28;20128;-70
2020/12/18 09:26:46;;;;;;;2.35;2.15;;;;;;;;;;5058895;28;20040;-71
2020/12/18 09:29:16;;;;;;;4.93;2.65;;;;;;;;;;5067889;28;20422;-71
2020/12/18 09:31:43;;;;;;;5.97;3.10;;;;;;;;;;5069001;28;20081;-71
2020/12/18 09:34:15;;;;;;;2.75;2.30;;;;;;;;;;5066853;28;20056;-70
2020/12/18 09:36:41;;;;;;;10.53;3.00;;;;;;;;;;5065982;28;20105;-70
2020/12/18 09:39:08;;;;;;;4.32;3.28;;;;;;;;;;5068581;28;20475;-70
2020/12/18 09:41:34;;;;;;;4.25;2.60;;;;;;;;;;5068623;28;20024;-70
2020/12/18 09:44:00;;;;;;;4.88;3.00;;;;;;;;;;5068948;28;20032;-71
2020/12/18 09:46:26;;;;;;;5.90;3.17;;;;;;;;;;5074756;28;20111;-70
2020/12/18 09:48:52;;;;;;;3.75;3.28;;;;;;;;;;5055354;28;20429;-71
2020/12/18 09:51:19;;;;;;;6.18;3.65;;;;;;;;;;5074529;28;20036;-71
2020/12/18 09:53:48;;;;;;;5.43;4.25;;;;;;;;;;5075446;28;20086;-71
2020/12/18 09:56:15;;;;;;;4.63;4.22;;;;;;;;;;5064776;28;20094;-71
2020/12/18 09:58:41;;;;;;;5.32;3.72;;;;;;;;;;5065151;28;20032;-71
2020/12/18 10:01:07;;;;;;;6.93;3.28;;;;;;;;;;5064008;28;20599;-68
2020/12/18 10:03:33;;;;;;;2.42;2.03;;;;;;;;;;5067420;28;20077;-66
2020/12/18 10:05:59;;;;;;;6.03;2.60;;;;;;;;;;5060705;28;20024;-67
2020/12/18 10:08:25;;;;;;;4.90;2.70;;;;;;;;;;5074355;28;20036;-72
2020/12/18 10:10:51;;;;;;;7.28;5.03;;;;;;;;;;5075211;28;20429;-66
2020/12/18 10:13:18;;;;;;;10.43;4.85;;;;;;;;;;5072698;28;20020;-66
2020/12/18 10:15:44;;;;;;;7.90;4.68;;;;;;;;;;5074082;28;20033;-66
2020/12/18 10:18:10;;;;;;;34.78;23.70;;;;;;;;;;5072911;28;20021;-66
2020/12/18 10:20:36;;;;;;;106.03;63.88;;;;;;;;;;5070785;28;20036;-66
2020/12/18 10:23:02;;;;;;;49.90;33.30;;;;;;;;;;5070969;28;20041;-66
2020/12/18 10:25:28;;;;;;;12.10;9.15;;;;;;;;;;5070932;28;20039;-65
2020/12/18 10:27:54;;;;;;;9.48;7.65;;;;;;;;;;5064955;28;20044;-67
2020/12/18 10:30:20;;;;;;;10.13;7.80;;;;;;;;;;5063794;28;20435;-65
2020/12/18 10:32:47;;;;;;;7.35;4.72;;;;;;;;;;5067976;28;20112;-66
2020/12/18 10:35:14;;;;;;;9.15;6.53;;;;;;;;;;5068164;28;20037;-65
2020/12/18 10:37:41;;;;;;;8.98;6.00;;;;;;;;;;5071925;28;20536;-65
2020/12/18 10:40:07;;;;;;;13.45;7.68;;;;;;;;;;5074252;28;20024;-65
2020/12/18 10:42:34;;;;;;;7.85;4.78;;;;;;;;;;5074464;28;20078;-65
2020/12/18 10:45:00;;;;;;;6.03;4.13;;;;;;;;;;5057388;28;20354;-65
2020/12/18 10:47:26;;;;;;;10.02;5.85;;;;;;;;;;5073859;28;20028;-66
2020/12/18 10:49:52;;;;;;;6.18;4.90;;;;;;;;;;5074600;28;20021;-65
2020/12/18 10:52:18;;;;;;;7.40;5.80;;;;;;;;;;5072614;28;20107;-66
2020/12/18 10:54:44;;;;;;;7.30;4.93;;;;;;;;;;5067285;28;20028;-65
2020/12/18 10:57:11;;;;;;;7.07;4.57;;;;;;;;;;5061088;28;20347;-65
2020/12/18 10:59:37;;;;;;;4.20;3.63;;;;;;;;;;5060100;28;20063;-65
2020/12/18 11:02:03;;;;;;;6.13;4.68;;;;;;;;;;5062091;28;20553;-66
2020/12/18 11:04:30;;;;;;;7.72;5.07;;;;;;;;;;5059565;28;20202;-66
2020/12/18 11:06:56;;;;;;;3.65;3.08;;;;;;;;;;5060764;28;20517;-67
2020/12/18 11:09:22;;;;;;;3.75;3.25;;;;;;;;;;5060888;28;20021;-66
2020/12/18 11:11:52;;;;;;;6.90;3.05;;;;;;;;;;5060722;28;20104;-66
2020/12/18 11:14:18;;;;;;;4.63;2.85;;;;;;;;;;5057556;28;20024;-65
2020/12/18 11:16:44;;;;;;;4.03;2.78;;;;;;;;;;5060923;28;20041;-70
2020/12/18 11:19:11;;;;;;;6.10;3.90;;;;;;;;;;5061976;28;20024;-66
2020/12/18 11:21:41;;;;;;;5.13;3.15;;;;;;;;;;5063717;28;20033;-66
2020/12/18 11:24:07;;;;;;;2.90;2.03;;;;;;;;;;5063436;28;20375;-66
2020/12/18 11:26:33;;;;;;;5.13;2.22;;;;;;;;;;5061271;28;20044;-67
2020/12/18 11:28:59;;;;;;;4.20;2.60;;;;;;;;;;5060819;28;20024;-65
2020/12/18 11:31:25;;;;;;;6.57;3.45;;;;;;;;;;5064601;28;20111;-67
2020/12/18 11:33:51;;;;;;;4.38;2.50;;;;;;;;;;5070938;28;20048;-66
2020/12/18 11:36:17;;;;;;;4.57;2.88;;;;;;;;;;5069532;28;20024;-65
2020/12/18 11:38:43;;;;;;;6.13;3.20;;;;;;;;;;5070811;28;20486;-67
2020/12/18 11:41:10;;;;;;;4.97;3.42;;;;;;;;;;5070178;28;20027;-66
2020/12/18 11:43:36;;;;;;;3.35;2.15;;;;;;;;;;5070258;28;20024;-65
2020/12/18 11:46:02;;;;;;;4.25;2.75;;;;;;;;;;5070852;28;20082;-65
2020/12/18 11:48:30;;;;;;;3.13;2.42;;;;;;;;;;5069781;28;20518;-68
2020/12/18 11:50:56;;;;;;;3.35;2.25;;;;;;;;;;5070623;28;20116;-67
2020/12/18 11:53:22;;;;;;;4.47;2.95;;;;;;;;;;5069557;28;20028;-68
2020/12/18 11:55:48;;;;;;;3.63;3.17;;;;;;;;;;5070933;28;20188;-65
2020/12/18 11:58:15;;;;;;;3.50;2.30;;;;;;;;;;5068164;28;20451;-65
2020/12/18 12:00:42;;;;;;;2.25;2.05;;;;;;;;;;5068835;28;20081;-67
2020/12/18 12:03:08;;;;;;;5.00;2.65;;;;;;;;;;5068753;28;20443;-67
2020/12/18 12:05:35;;;;;;;3.88;2.92;;;;;;;;;;5069450;28;20486;-67
2020/12/18 12:08:01;;;;;;;3.17;2.42;;;;;;;;;;5069700;28;20029;-67
2020/12/18 12:10:30;;;;;;;2.35;1.70;;;;;;;;;;5065130;28;20193;-67
2020/12/18 12:12:56;;;;;;;2.65;2.13;;;;;;;;;;5069983;28;20114;-67
2020/12/18 12:15:22;;;;;;;3.78;2.15;;;;;;;;;;5069288;28;20029;-67
2020/12/18 12:17:48;;;;;;;3.53;2.45;;;;;;;;;;5068021;28;20032;-67
2020/12/18 12:20:15;;;;;;;2.45;2.22;;;;;;;;;;5065547;28;20021;-67
2020/12/18 12:22:41;;;;;;;2.28;2.08;;;;;;;;;;5065954;28;20495;-67
2020/12/18 12:25:07;;;;;;;2.83;1.85;;;;;;;;;;5063082;28;20402;-67
2020/12/18 12:27:34;;;;;;;2.35;2.20;;;;;;;;;;5068701;28;20072;-67
2020/12/18 12:30:01;;;;;;;2.75;1.75;;;;;;;;;;5059926;28;20032;-67
2020/12/18 12:32:28;;;;;;;1.63;1.40;;;;;;;;;;5064042;28;20086;-67
2020/12/18 12:34:54;;;;;;;3.78;1.80;;;;;;;;;;5063886;28;20035;-68
2020/12/18 12:37:20;;;;;;;3.97;2.60;;;;;;;;;;5059178;28;20055;-68
2020/12/18 12:39:48;;;;;;;3.03;1.80;;;;;;;;;;5063831;28;20036;-67
2020/12/18 12:42:14;;;;;;;2.90;2.20;;;;;;;;;;5056534;28;20044;-67
2020/12/18 12:44:40;;;;;;;3.60;2.28;;;;;;;;;;5066004;28;20033;-67
2020/12/18 12:47:06;;;;;;;3.28;1.90;;;;;;;;;;5052234;28;20032;-67
2020/12/18 12:49:32;;;;;;;3.90;2.33;;;;;;;;;;5064454;28;20036;-68
2020/12/18 12:51:59;;;;;;;3.15;2.08;;;;;;;;;;5073689;28;20161;-67
2020/12/18 12:54:25;;;;;;;1.95;1.40;;;;;;;;;;5068406;28;20032;-68
2020/12/18 12:56:52;;;;;;;3.92;1.85;;;;;;;;;;5066051;28;20024;-68
2020/12/18 12:59:18;;;;;;;2.92;2.65;;;;;;;;;;5068689;28;20024;-68
2020/12/18 13:01:44;;;;;;;2.45;1.90;;;;;;;;;;5065144;28;20029;-68
2020/12/18 13:04:11;;;;;;;2.30;1.80;;;;;;;;;;5065522;28;20024;-68
2020/12/18 13:06:37;;;;;;;4.97;4.47;;;;;;;;;;5067236;28;20123;-67
2020/12/18 13:09:04;;;;;;;2.83;1.83;;;;;;;;;;5064016;28;20111;-68
2020/12/18 13:11:34;;;;;;;6.18;2.90;;;;;;;;;;5058182;28;20111;-70
2020/12/18 13:14:00;;;;;;;2.08;1.80;;;;;;;;;;5069775;28;20028;-67
2020/12/18 13:16:26;;;;;;;1.67;1.58;;;;;;;;;;5066767;28;20020;-68
2020/12/18 13:18:52;;;;;;;4.95;4.10;;;;;;;;;;5067751;28;20031;-67
2020/12/18 13:21:19;;;;;;;4.57;2.38;;;;;;;;;;5067884;28;20113;-67
2020/12/18 13:23:45;;;;;;;7.70;3.53;;;;;;;;;;5065367;28;20074;-67
2020/12/18 13:26:11;;;;;;;5.38;2.78;;;;;;;;;;5066731;28;20535;-71
2020/12/18 13:28:37;;;;;;;5.47;3.22;;;;;;;;;;5067949;28;20070;-68
2020/12/18 13:31:03;;;;;;;9.15;8.02;;;;;;;;;;5068542;28;20034;-67
2020/12/18 13:33:29;;;;;;;18.10;3.20;;;;;;;;;;5067677;28;20047;-67
2020/12/18 13:35:55;;;;;;;3.42;1.95;;;;;;;;;;5067215;28;20025;-67
2020/12/18 13:38:21;;;;;;;8.80;3.03;;;;;;;;;;5067364;28;20033;-67
2020/12/18 13:40:47;;;;;;;3.15;2.65;;;;;;;;;;5068481;28;20414;-67
2020/12/18 13:43:14;;;;;;;3.55;1.80;;;;;;;;;;5067026;28;20086;-67
2020/12/18 13:45:40;;;;;;;1.58;1.02;;;;;;;;;;5065541;28;20074;-68
2020/12/18 13:48:06;;;;;;;2.75;1.35;;;;;;;;;;5068013;28;20035;-67
2020/12/18 13:50:32;;;;;;;3.85;2.45;;;;;;;;;;5067958;28;20062;-67
2020/12/18 13:52:58;;;;;;;4.13;1.40;;;;;;;;;;5064224;28;20017;-67
2020/12/18 13:55:24;;;;;;;4.32;1.42;;;;;;;;;;5056380;28;20068;-67
2020/12/18 13:57:50;;;;;;;1.10;0.70;;;;;;;;;;5061186;28;20031;-67
2020/12/18 14:00:16;;;;;;;1.85;1.08;;;;;;;;;;5056454;28;20032;-67
2020/12/18 14:02:42;;;;;;;2.42;0.90;;;;;;;;;;5067567;28;20375;-67
2020/12/18 14:05:10;;;;;;;1.30;1.05;;;;;;;;;;5056768;28;20064;-67
2020/12/18 14:07:36;;;;;;;1.13;0.60;;;;;;;;;;5058229;28;20035;-68
2020/12/18 14:10:03;;;;;;;0.77;0.75;;;;;;;;;;5064722;28;20407;-67
2020/12/18 14:12:30;;;;;;;2.13;1.10;;;;;;;;;;5066863;28;20028;-66
2020/12/18 14:14:56;;;;;;;2.53;1.45;;;;;;;;;;5066371;28;20051;-67
2020/12/18 14:17:23;;;;;;;1.10;1.02;;;;;;;;;;5065363;28;20044;-68
2020/12/18 14:19:49;;;;;;;2.58;1.30;;;;;;;;;;5066831;28;20386;-72
2020/12/18 14:22:15;;;;;;;2.95;1.38;;;;;;;;;;5061597;28;20031;-71
2020/12/18 14:24:42;;;;;;;3.40;1.45;;;;;;;;;;5068562;28;20483;-71
2020/12/18 14:27:08;;;;;;;2.83;1.50;;;;;;;;;;5067309;28;20509;-71
2020/12/18 14:29:34;;;;;;;1.30;1.02;;;;;;;;;;5064845;28;20383;-73
2020/12/18 14:32:00;;;;;;;3.30;1.13;;;;;;;;;;5067976;28;20078;-71
2020/12/18 14:34:26;;;;;;;0.57;0.50;;;;;;;;;;5070668;28;20052;-71
2020/12/18 14:36:53;;;;;;;1.90;0.50;;;;;;;;;;5072375;28;20036;-70
2020/12/18 14:39:19;;;;;;;1.88;0.50;;;;;;;;;;5068460;28;20117;-71
2020/12/18 14:41:46;;;;;;;3.70;0.73;;;;;;;;;;5072279;28;20031;-71
2020/12/18 14:44:12;;;;;;;1.00;0.90;;;;;;;;;;5070796;28;20036;-71